sensor_id;sensor_type;location;lat;lon;timestamp;temperature;humidity
29345;DHT22;16339;48.748;2.222;2022-08-11T00:00:07;28.00;38.90
29345;DHT22;16339;48.748;2.222;2022-08-11T00:02:39;27.90;38.70
29345;DHT22;16339;48.748;2.222;2022-08-11T00:05:15;27.90;38.80
29345;DHT22;16339;48.748;2.222;2022-08-11T00:07:48;27.90;38.50
29345;DHT22;16339;48.748;2.222;2022-08-11T00:10:19;27.90;38.80
29345;DHT22;16339;48.748;2.222;2022-08-11T00:12:53;27.80;38.80
29345;DHT22;16339;48.748;2.222;2022-08-11T00:15:28;27.80;39.00
29345;DHT22;16339;48.748;2.222;2022-08-11T00:18:07;27.80;39.00
29345;DHT22;16339;48.748;2.222;2022-08-11T00:20:43;27.80;38.90
29345;DHT22;16339;48.748;2.222;2022-08-11T00:23:15;27.70;39.10
29345;DHT22;16339;48.748;2.222;2022-08-11T00:25:46;27.80;38.90
29345;DHT22;16339;48.748;2.222;2022-08-11T00:28:24;27.80;39.20
29345;DHT22;16339;48.748;2.222;2022-08-11T00:30:54;27.80;39.00
29345;DHT22;16339;48.748;2.222;2022-08-11T00:33:30;27.70;38.90
29345;DHT22;16339;48.748;2.222;2022-08-11T00:36:04;27.70;39.50
29345;DHT22;16339;48.748;2.222;2022-08-11T00:38:36;27.70;39.60
29345;DHT22;16339;48.748;2.222;2022-08-11T00:41:27;27.70;39.70
29345;DHT22;16339;48.748;2.222;2022-08-11T00:46:58;27.60;39.80
29345;DHT22;16339;48.748;2.222;2022-08-11T00:49:38;27.60;39.80
29345;DHT22;16339;48.748;2.222;2022-08-11T00:52:25;27.60;39.90
29345;DHT22;16339;48.748;2.222;2022-08-11T00:55:22;27.60;40.00
29345;DHT22;16339;48.748;2.222;2022-08-11T01:01:06;27.60;40.10
29345;DHT22;16339;48.748;2.222;2022-08-11T01:04:01;27.60;39.80
29345;DHT22;16339;48.748;2.222;2022-08-11T01:06:48;27.50;40.10
29345;DHT22;16339;48.748;2.222;2022-08-11T01:09:48;27.50;39.90
29345;DHT22;16339;48.748;2.222;2022-08-11T01:12:39;27.50;40.30
29345;DHT22;16339;48.748;2.222;2022-08-11T01:27:48;27.20;39.90
29345;DHT22;16339;48.748;2.222;2022-08-11T01:30:56;27.20;39.50
29345;DHT22;16339;48.748;2.222;2022-08-11T01:34:00;27.30;39.30
29345;DHT22;16339;48.748;2.222;2022-08-11T01:36:59;27.20;38.70
29345;DHT22;16339;48.748;2.222;2022-08-11T01:39:55;27.20;39.00
29345;DHT22;16339;48.748;2.222;2022-08-11T01:45:51;27.00;38.80
29345;DHT22;16339;48.748;2.222;2022-08-11T01:48:28;27.00;39.00
29345;DHT22;16339;48.748;2.222;2022-08-11T01:51:23;27.00;38.90
29345;DHT22;16339;48.748;2.222;2022-08-11T01:54:03;27.00;38.70
29345;DHT22;16339;48.748;2.222;2022-08-11T01:56:41;27.00;38.60
29345;DHT22;16339;48.748;2.222;2022-08-11T01:59:18;27.00;38.70
29345;DHT22;16339;48.748;2.222;2022-08-11T02:02:12;27.00;38.60
29345;DHT22;16339;48.748;2.222;2022-08-11T02:08:16;27.00;39.00
29345;DHT22;16339;48.748;2.222;2022-08-11T02:11:02;27.00;38.70
29345;DHT22;16339;48.748;2.222;2022-08-11T02:13:47;27.00;38.90
29345;DHT22;16339;48.748;2.222;2022-08-11T02:16:25;26.90;38.90
29345;DHT22;16339;48.748;2.222;2022-08-11T02:19:04;26.90;38.70
29345;DHT22;16339;48.748;2.222;2022-08-11T02:21:57;26.90;39.10
29345;DHT22;16339;48.748;2.222;2022-08-11T02:24:52;26.90;38.80
29345;DHT22;16339;48.748;2.222;2022-08-11T02:27:33;26.90;39.00
29345;DHT22;16339;48.748;2.222;2022-08-11T02:30:06;26.80;38.90
29345;DHT22;16339;48.748;2.222;2022-08-11T02:32:38;26.80;38.70
29345;DHT22;16339;48.748;2.222;2022-08-11T02:35:26;26.80;38.70
29345;DHT22;16339;48.748;2.222;2022-08-11T02:38:10;26.70;38.70
29345;DHT22;16339;48.748;2.222;2022-08-11T02:40:46;26.70;38.50
29345;DHT22;16339;48.748;2.222;2022-08-11T02:43:34;26.60;38.70
29345;DHT22;16339;48.748;2.222;2022-08-11T02:46:18;26.60;38.80
29345;DHT22;16339;48.748;2.222;2022-08-11T02:48:55;26.50;38.50
29345;DHT22;16339;48.748;2.222;2022-08-11T02:51:45;26.50;39.30
29345;DHT22;16339;48.748;2.222;2022-08-11T02:54:24;26.50;38.90
29345;DHT22;16339;48.748;2.222;2022-08-11T02:57:03;26.50;39.00
29345;DHT22;16339;48.748;2.222;2022-08-11T02:59:42;26.40;39.00
29345;DHT22;16339;48.748;2.222;2022-08-11T03:02:32;26.40;39.40
29345;DHT22;16339;48.748;2.222;2022-08-11T03:05:15;26.30;39.70
29345;DHT22;16339;48.748;2.222;2022-08-11T03:07:57;26.30;39.50
29345;DHT22;16339;48.748;2.222;2022-08-11T03:10:35;26.40;39.50
29345;DHT22;16339;48.748;2.222;2022-08-11T03:13:14;26.30;39.20
29345;DHT22;16339;48.748;2.222;2022-08-11T03:16:09;26.30;39.40
29345;DHT22;16339;48.748;2.222;2022-08-11T03:18:58;26.30;39.50
29345;DHT22;16339;48.748;2.222;2022-08-11T03:21:34;26.30;40.00
29345;DHT22;16339;48.748;2.222;2022-08-11T03:24:10;26.30;39.60
29345;DHT22;16339;48.748;2.222;2022-08-11T03:26:49;26.30;39.60
29345;DHT22;16339;48.748;2.222;2022-08-11T03:29:34;26.30;39.50
29345;DHT22;16339;48.748;2.222;2022-08-11T03:32:18;26.30;39.70
29345;DHT22;16339;48.748;2.222;2022-08-11T03:34:49;26.30;39.40
29345;DHT22;16339;48.748;2.222;2022-08-11T03:37:25;26.30;39.70
29345;DHT22;16339;48.748;2.222;2022-08-11T03:40:19;26.30;39.70
29345;DHT22;16339;48.748;2.222;2022-08-11T03:43:10;26.20;39.70
29345;DHT22;16339;48.748;2.222;2022-08-11T03:45:57;26.30;39.80
29345;DHT22;16339;48.748;2.222;2022-08-11T03:48:39;26.20;39.80
29345;DHT22;16339;48.748;2.222;2022-08-11T03:51:17;26.30;39.90
29345;DHT22;16339;48.748;2.222;2022-08-11T03:54:09;26.30;39.90
29345;DHT22;16339;48.748;2.222;2022-08-11T04:00:20;26.30;40.10
29345;DHT22;16339;48.748;2.222;2022-08-11T04:06:13;26.20;40.00
29345;DHT22;16339;48.748;2.222;2022-08-11T04:18:49;26.20;40.10
29345;DHT22;16339;48.748;2.222;2022-08-11T04:25:06;26.20;40.00
29345;DHT22;16339;48.748;2.222;2022-08-11T04:28:06;26.20;40.70
29345;DHT22;16339;48.748;2.222;2022-08-11T04:31:01;26.20;39.90
29345;DHT22;16339;48.748;2.222;2022-08-11T04:33:53;26.20;40.00
29345;DHT22;16339;48.748;2.222;2022-08-11T04:40:11;26.20;40.10
29345;DHT22;16339;48.748;2.222;2022-08-11T04:43:20;26.20;40.30
29345;DHT22;16339;48.748;2.222;2022-08-11T04:49:13;26.00;40.40
29345;DHT22;16339;48.748;2.222;2022-08-11T04:52:09;26.00;40.50
29345;DHT22;16339;48.748;2.222;2022-08-11T04:55:13;26.00;40.60
29345;DHT22;16339;48.748;2.222;2022-08-11T04:58:08;26.00;40.70
29345;DHT22;16339;48.748;2.222;2022-08-11T05:00:55;26.00;40.80
29345;DHT22;16339;48.748;2.222;2022-08-11T05:04:11;26.00;40.80
29345;DHT22;16339;48.748;2.222;2022-08-11T05:07:12;25.90;40.80
29345;DHT22;16339;48.748;2.222;2022-08-11T05:10:06;25.80;40.80
29345;DHT22;16339;48.748;2.222;2022-08-11T05:12:46;25.70;41.20
29345;DHT22;16339;48.748;2.222;2022-08-11T05:15:20;25.60;41.10
29345;DHT22;16339;48.748;2.222;2022-08-11T05:18:11;25.50;41.30
29345;DHT22;16339;48.748;2.222;2022-08-11T05:20:55;25.50;41.60
29345;DHT22;16339;48.748;2.222;2022-08-11T05:23:40;25.50;41.60
29345;DHT22;16339;48.748;2.222;2022-08-11T05:26:24;25.40;41.50
29345;DHT22;16339;48.748;2.222;2022-08-11T05:29:35;25.50;41.90
29345;DHT22;16339;48.748;2.222;2022-08-11T05:32:18;25.60;42.10
29345;DHT22;16339;48.748;2.222;2022-08-11T05:35:03;25.70;42.30
29345;DHT22;16339;48.748;2.222;2022-08-11T05:37:37;25.80;42.50
29345;DHT22;16339;48.748;2.222;2022-08-11T05:40:21;25.80;42.00
29345;DHT22;16339;48.748;2.222;2022-08-11T05:43:07;25.80;42.30
29345;DHT22;16339;48.748;2.222;2022-08-11T05:45:59;25.80;42.70
29345;DHT22;16339;48.748;2.222;2022-08-11T05:48:42;25.90;42.80
29345;DHT22;16339;48.748;2.222;2022-08-11T05:51:32;26.00;42.80
29345;DHT22;16339;48.748;2.222;2022-08-11T05:54:15;26.00;43.00
29345;DHT22;16339;48.748;2.222;2022-08-11T05:56:59;26.10;43.20
29345;DHT22;16339;48.748;2.222;2022-08-11T05:59:30;26.10;43.50
29345;DHT22;16339;48.748;2.222;2022-08-11T06:02:05;26.10;43.10
29345;DHT22;16339;48.748;2.222;2022-08-11T06:04:35;26.20;43.40
29345;DHT22;16339;48.748;2.222;2022-08-11T06:07:07;26.30;43.20
29345;DHT22;16339;48.748;2.222;2022-08-11T06:09:39;26.30;43.50
29345;DHT22;16339;48.748;2.222;2022-08-11T06:12:17;26.30;43.40
29345;DHT22;16339;48.748;2.222;2022-08-11T06:14:51;26.30;43.40
29345;DHT22;16339;48.748;2.222;2022-08-11T06:17:25;26.40;43.90
29345;DHT22;16339;48.748;2.222;2022-08-11T06:19:59;26.40;43.70
29345;DHT22;16339;48.748;2.222;2022-08-11T06:22:29;26.40;44.20
29345;DHT22;16339;48.748;2.222;2022-08-11T06:25:00;26.50;44.70
29345;DHT22;16339;48.748;2.222;2022-08-11T07:21:13;27.70;35.90
29345;DHT22;16339;48.748;2.222;2022-08-11T07:24:06;27.70;35.60
29345;DHT22;16339;48.748;2.222;2022-08-11T07:26:52;27.80;35.70
29345;DHT22;16339;48.748;2.222;2022-08-11T07:29:35;27.80;35.50
29345;DHT22;16339;48.748;2.222;2022-08-11T07:32:16;27.90;35.60
29345;DHT22;16339;48.748;2.222;2022-08-11T07:34:51;27.90;35.60
29345;DHT22;16339;48.748;2.222;2022-08-11T07:37:29;28.00;35.40
29345;DHT22;16339;48.748;2.222;2022-08-11T07:39:59;28.00;35.20
29345;DHT22;16339;48.748;2.222;2022-08-11T07:42:31;28.00;35.00
29345;DHT22;16339;48.748;2.222;2022-08-11T07:45:05;28.10;34.90
29345;DHT22;16339;48.748;2.222;2022-08-11T07:47:46;28.10;34.70
29345;DHT22;16339;48.748;2.222;2022-08-11T07:50:29;28.10;34.80
29345;DHT22;16339;48.748;2.222;2022-08-11T07:53:14;28.10;34.60
29345;DHT22;16339;48.748;2.222;2022-08-11T07:55:43;28.10;35.30
29345;DHT22;16339;48.748;2.222;2022-08-11T07:58:13;28.20;34.80
29345;DHT22;16339;48.748;2.222;2022-08-11T08:00:56;28.20;34.70
29345;DHT22;16339;48.748;2.222;2022-08-11T08:03:38;28.20;34.50
29345;DHT22;16339;48.748;2.222;2022-08-11T08:06:20;28.30;34.50
29345;DHT22;16339;48.748;2.222;2022-08-11T08:09:07;28.30;34.60
29345;DHT22;16339;48.748;2.222;2022-08-11T08:11:49;28.30;34.60
29345;DHT22;16339;48.748;2.222;2022-08-11T08:14:31;28.30;34.40
29345;DHT22;16339;48.748;2.222;2022-08-11T08:17:12;28.30;34.20
29345;DHT22;16339;48.748;2.222;2022-08-11T08:19:56;28.40;34.40
29345;DHT22;16339;48.748;2.222;2022-08-11T08:22:25;28.40;34.60
29345;DHT22;16339;48.748;2.222;2022-08-11T08:24:57;28.40;34.70
29345;DHT22;16339;48.748;2.222;2022-08-11T08:27:26;28.40;34.50
29345;DHT22;16339;48.748;2.222;2022-08-11T08:29:56;28.50;34.60
29345;DHT22;16339;48.748;2.222;2022-08-11T08:32:39;28.50;34.50
29345;DHT22;16339;48.748;2.222;2022-08-11T08:35:10;28.50;34.40
29345;DHT22;16339;48.748;2.222;2022-08-11T08:37:40;28.60;34.40
29345;DHT22;16339;48.748;2.222;2022-08-11T08:40:12;28.60;34.20
29345;DHT22;16339;48.748;2.222;2022-08-11T08:42:52;28.60;34.50
29345;DHT22;16339;48.748;2.222;2022-08-11T08:45:23;28.60;34.70
29345;DHT22;16339;48.748;2.222;2022-08-11T08:47:58;28.70;34.60
29345;DHT22;16339;48.748;2.222;2022-08-11T08:50:30;28.70;34.50
29345;DHT22;16339;48.748;2.222;2022-08-11T08:53:13;28.70;34.20
29345;DHT22;16339;48.748;2.222;2022-08-11T08:55:47;28.70;34.40
29345;DHT22;16339;48.748;2.222;2022-08-11T08:58:23;28.70;34.70
29345;DHT22;16339;48.748;2.222;2022-08-11T09:00:55;28.80;34.40
29345;DHT22;16339;48.748;2.222;2022-08-11T09:03:26;28.80;34.20
29345;DHT22;16339;48.748;2.222;2022-08-11T09:05:55;28.90;34.30
29345;DHT22;16339;48.748;2.222;2022-08-11T09:08:25;28.90;34.30
29345;DHT22;16339;48.748;2.222;2022-08-11T09:10:57;28.90;34.30
29345;DHT22;16339;48.748;2.222;2022-08-11T09:13:41;28.90;34.00
29345;DHT22;16339;48.748;2.222;2022-08-11T09:16:11;29.00;33.90
29345;DHT22;16339;48.748;2.222;2022-08-11T09:18:41;29.00;34.00
29345;DHT22;16339;48.748;2.222;2022-08-11T09:21:11;29.00;34.00
29345;DHT22;16339;48.748;2.222;2022-08-11T09:23:48;29.10;34.00
29345;DHT22;16339;48.748;2.222;2022-08-11T09:26:33;29.10;34.20
29345;DHT22;16339;48.748;2.222;2022-08-11T09:29:15;29.10;34.10
29345;DHT22;16339;48.748;2.222;2022-08-11T09:31:45;29.20;33.70
29345;DHT22;16339;48.748;2.222;2022-08-11T10:40:43;30.10;30.10
29345;DHT22;16339;48.748;2.222;2022-08-11T10:51:41;30.20;29.70
29345;DHT22;16339;48.748;2.222;2022-08-11T11:13:32;30.60;29.20
29345;DHT22;16339;48.748;2.222;2022-08-11T11:16:19;30.70;29.20
29345;DHT22;16339;48.748;2.222;2022-08-11T11:19:05;30.70;29.30
29345;DHT22;16339;48.748;2.222;2022-08-11T11:21:37;30.70;29.30
29345;DHT22;16339;48.748;2.222;2022-08-11T11:24:12;30.90;29.60
29345;DHT22;16339;48.748;2.222;2022-08-11T11:26:50;30.80;29.00
29345;DHT22;16339;48.748;2.222;2022-08-11T11:29:43;30.90;29.20
29345;DHT22;16339;48.748;2.222;2022-08-11T11:32:23;30.90;29.10
29345;DHT22;16339;48.748;2.222;2022-08-11T11:35:17;31.00;29.30
29345;DHT22;16339;48.748;2.222;2022-08-11T11:37:49;31.00;29.20
29345;DHT22;16339;48.748;2.222;2022-08-11T11:40:20;31.10;29.20
29345;DHT22;16339;48.748;2.222;2022-08-11T11:42:51;31.20;29.40
29345;DHT22;16339;48.748;2.222;2022-08-11T11:45:24;31.20;29.20
29345;DHT22;16339;48.748;2.222;2022-08-11T11:47:55;31.30;29.00
29345;DHT22;16339;48.748;2.222;2022-08-11T11:50:25;31.30;28.60
29345;DHT22;16339;48.748;2.222;2022-08-11T11:52:54;31.30;28.70
29345;DHT22;16339;48.748;2.222;2022-08-11T11:55:25;31.40;28.70
29345;DHT22;16339;48.748;2.222;2022-08-11T11:57:57;31.40;28.70
29345;DHT22;16339;48.748;2.222;2022-08-11T12:00:47;31.50;28.90
29345;DHT22;16339;48.748;2.222;2022-08-11T12:03:29;31.50;29.00
29345;DHT22;16339;48.748;2.222;2022-08-11T12:05:59;31.50;28.90
29345;DHT22;16339;48.748;2.222;2022-08-11T12:08:28;31.60;29.00
29345;DHT22;16339;48.748;2.222;2022-08-11T12:11:00;31.60;28.60
29345;DHT22;16339;48.748;2.222;2022-08-11T12:13:44;31.70;28.40
29345;DHT22;16339;48.748;2.222;2022-08-11T12:16:18;31.70;28.50
29345;DHT22;16339;48.748;2.222;2022-08-11T12:18:52;31.70;28.30
29345;DHT22;16339;48.748;2.222;2022-08-11T12:21:22;31.70;28.50
29345;DHT22;16339;48.748;2.222;2022-08-11T12:23:51;31.80;28.50
29345;DHT22;16339;48.748;2.222;2022-08-11T12:26:35;31.80;28.30
29345;DHT22;16339;48.748;2.222;2022-08-11T12:29:21;31.80;28.50
29345;DHT22;16339;48.748;2.222;2022-08-11T12:31:55;31.80;28.20
29345;DHT22;16339;48.748;2.222;2022-08-11T12:34:26;31.90;28.20
29345;DHT22;16339;48.748;2.222;2022-08-11T12:36:57;32.00;28.20
29345;DHT22;16339;48.748;2.222;2022-08-11T12:39:33;32.00;28.10
29345;DHT22;16339;48.748;2.222;2022-08-11T12:42:17;32.00;28.00
29345;DHT22;16339;48.748;2.222;2022-08-11T12:44:59;32.00;27.90
29345;DHT22;16339;48.748;2.222;2022-08-11T12:47:47;32.10;28.10
29345;DHT22;16339;48.748;2.222;2022-08-11T12:50:29;32.10;27.90
29345;DHT22;16339;48.748;2.222;2022-08-11T12:53:12;32.20;27.90
29345;DHT22;16339;48.748;2.222;2022-08-11T12:55:41;32.30;28.10
29345;DHT22;16339;48.748;2.222;2022-08-11T12:58:23;32.30;28.20
29345;DHT22;16339;48.748;2.222;2022-08-11T13:00:55;32.50;28.00
29345;DHT22;16339;48.748;2.222;2022-08-11T13:03:39;32.60;28.00
29345;DHT22;16339;48.748;2.222;2022-08-11T13:06:22;32.60;27.50
29345;DHT22;16339;48.748;2.222;2022-08-11T13:08:52;32.70;27.50
29345;DHT22;16339;48.748;2.222;2022-08-11T13:11:26;32.70;27.20
29345;DHT22;16339;48.748;2.222;2022-08-11T13:14:08;32.80;26.90
29345;DHT22;16339;48.748;2.222;2022-08-11T13:16:37;32.80;27.20
29345;DHT22;16339;48.748;2.222;2022-08-11T13:19:22;32.90;26.90
29345;DHT22;16339;48.748;2.222;2022-08-11T13:21:52;32.90;27.20
29345;DHT22;16339;48.748;2.222;2022-08-11T13:24:21;32.90;27.20
29345;DHT22;16339;48.748;2.222;2022-08-11T13:26:51;33.00;26.90
29345;DHT22;16339;48.748;2.222;2022-08-11T13:29:21;33.00;26.90
29345;DHT22;16339;48.748;2.222;2022-08-11T13:31:53;33.10;27.10
29345;DHT22;16339;48.748;2.222;2022-08-11T13:34:28;33.20;26.90
29345;DHT22;16339;48.748;2.222;2022-08-11T13:37:01;33.20;26.60
29345;DHT22;16339;48.748;2.222;2022-08-11T13:39:33;33.20;26.70
29345;DHT22;16339;48.748;2.222;2022-08-11T13:42:05;33.20;27.00
29345;DHT22;16339;48.748;2.222;2022-08-11T13:44:35;33.20;26.90
29345;DHT22;16339;48.748;2.222;2022-08-11T13:47:07;33.30;27.10
29345;DHT22;16339;48.748;2.222;2022-08-11T13:49:41;33.40;27.10
29345;DHT22;16339;48.748;2.222;2022-08-11T13:52:14;33.40;27.00
29345;DHT22;16339;48.748;2.222;2022-08-11T13:54:46;33.40;26.40
29345;DHT22;16339;48.748;2.222;2022-08-11T13:57:18;33.40;26.50
29345;DHT22;16339;48.748;2.222;2022-08-11T13:59:52;33.50;26.60
29345;DHT22;16339;48.748;2.222;2022-08-11T14:02:35;33.50;26.60
29345;DHT22;16339;48.748;2.222;2022-08-11T14:05:12;33.60;26.40
29345;DHT22;16339;48.748;2.222;2022-08-11T14:07:47;33.70;26.70
29345;DHT22;16339;48.748;2.222;2022-08-11T14:10:19;33.70;26.80
29345;DHT22;16339;48.748;2.222;2022-08-11T14:12:53;33.80;26.60
29345;DHT22;16339;48.748;2.222;2022-08-11T14:15:41;33.80;26.70
29345;DHT22;16339;48.748;2.222;2022-08-11T14:18:16;33.90;26.70
29345;DHT22;16339;48.748;2.222;2022-08-11T14:20:51;33.90;26.80
29345;DHT22;16339;48.748;2.222;2022-08-11T14:23:39;33.90;26.60
29345;DHT22;16339;48.748;2.222;2022-08-11T14:26:15;34.00;26.70
29345;DHT22;16339;48.748;2.222;2022-08-11T14:29:19;34.10;26.90
29345;DHT22;16339;48.748;2.222;2022-08-11T14:32:30;34.00;26.70
29345;DHT22;16339;48.748;2.222;2022-08-11T14:35:18;34.10;26.80
29345;DHT22;16339;48.748;2.222;2022-08-11T14:37:55;34.10;26.50
29345;DHT22;16339;48.748;2.222;2022-08-11T14:40:25;34.20;26.40
29345;DHT22;16339;48.748;2.222;2022-08-11T14:43:07;34.20;26.60
29345;DHT22;16339;48.748;2.222;2022-08-11T14:45:52;34.30;27.20
29345;DHT22;16339;48.748;2.222;2022-08-11T14:48:36;34.30;26.70
29345;DHT22;16339;48.748;2.222;2022-08-11T14:51:08;34.40;26.30
29345;DHT22;16339;48.748;2.222;2022-08-11T14:53:44;34.40;26.20
29345;DHT22;16339;48.748;2.222;2022-08-11T14:56:14;34.40;26.20
29345;DHT22;16339;48.748;2.222;2022-08-11T14:58:55;34.30;26.30
29345;DHT22;16339;48.748;2.222;2022-08-11T15:01:25;34.40;26.40
29345;DHT22;16339;48.748;2.222;2022-08-11T15:04:09;34.40;26.30
29345;DHT22;16339;48.748;2.222;2022-08-11T15:06:38;34.40;26.20
29345;DHT22;16339;48.748;2.222;2022-08-11T15:12:35;34.40;25.90
29345;DHT22;16339;48.748;2.222;2022-08-11T15:15:09;34.40;25.80
29345;DHT22;16339;48.748;2.222;2022-08-11T15:17:53;34.40;25.70
29345;DHT22;16339;48.748;2.222;2022-08-11T15:20:27;34.50;25.80
29345;DHT22;16339;48.748;2.222;2022-08-11T15:23:08;34.50;25.70
29345;DHT22;16339;48.748;2.222;2022-08-11T15:26:19;34.60;25.60
29345;DHT22;16339;48.748;2.222;2022-08-11T15:32:34;34.60;25.80
29345;DHT22;16339;48.748;2.222;2022-08-11T15:38:58;34.70;25.90
29345;DHT22;16339;48.748;2.222;2022-08-11T15:43:03;34.70;26.00
29345;DHT22;16339;48.748;2.222;2022-08-11T16:36:35;43.30;20.50
29345;DHT22;16339;48.748;2.222;2022-08-11T16:40:04;44.00;20.30
29345;DHT22;16339;48.748;2.222;2022-08-11T16:42:58;44.40;20.00
29345;DHT22;16339;48.748;2.222;2022-08-11T16:45:44;44.70;19.90
29345;DHT22;16339;48.748;2.222;2022-08-11T16:48:57;44.90;19.70
29345;DHT22;16339;48.748;2.222;2022-08-11T16:51:55;45.20;19.60
29345;DHT22;16339;48.748;2.222;2022-08-11T16:54:51;45.60;19.40
29345;DHT22;16339;48.748;2.222;2022-08-11T16:57:45;45.80;19.40
29345;DHT22;16339;48.748;2.222;2022-08-11T17:00:42;46.00;18.90
29345;DHT22;16339;48.748;2.222;2022-08-11T17:03:51;46.00;19.00
29345;DHT22;16339;48.748;2.222;2022-08-11T17:43:34;45.60;19.70
29345;DHT22;16339;48.748;2.222;2022-08-11T17:51:41;45.40;19.70
29345;DHT22;16339;48.748;2.222;2022-08-11T17:54:23;45.10;19.50
29345;DHT22;16339;48.748;2.222;2022-08-11T17:57:06;44.90;20.40
29345;DHT22;16339;48.748;2.222;2022-08-11T17:59:51;44.80;19.90
29345;DHT22;16339;48.748;2.222;2022-08-11T18:02:25;44.60;19.80
29345;DHT22;16339;48.748;2.222;2022-08-11T18:10:54;43.70;20.00
29345;DHT22;16339;48.748;2.222;2022-08-11T18:13:53;43.30;20.30
29345;DHT22;16339;48.748;2.222;2022-08-11T18:16:45;42.50;20.70
29345;DHT22;16339;48.748;2.222;2022-08-11T18:22:07;40.20;21.60
29345;DHT22;16339;48.748;2.222;2022-08-11T18:24:52;39.20;22.20
29345;DHT22;16339;48.748;2.222;2022-08-11T18:27:46;38.60;22.70
29345;DHT22;16339;48.748;2.222;2022-08-11T18:30:30;38.50;23.00
29345;DHT22;16339;48.748;2.222;2022-08-11T18:33:16;38.40;23.00
29345;DHT22;16339;48.748;2.222;2022-08-11T18:35:59;38.00;23.10
29345;DHT22;16339;48.748;2.222;2022-08-11T18:38:42;37.50;23.70
29345;DHT22;16339;48.748;2.222;2022-08-11T18:41:28;36.90;24.30
29345;DHT22;16339;48.748;2.222;2022-08-11T18:44:13;36.40;25.20
29345;DHT22;16339;48.748;2.222;2022-08-11T18:46:56;35.90;25.10
29345;DHT22;16339;48.748;2.222;2022-08-11T18:49:42;35.50;25.60
29345;DHT22;16339;48.748;2.222;2022-08-11T18:52:24;35.20;26.20
29345;DHT22;16339;48.748;2.222;2022-08-11T18:55:10;35.00;26.50
29345;DHT22;16339;48.748;2.222;2022-08-11T18:57:54;34.70;26.90
29345;DHT22;16339;48.748;2.222;2022-08-11T19:00:35;34.40;26.60
29345;DHT22;16339;48.748;2.222;2022-08-11T19:03:17;34.20;26.90
29345;DHT22;16339;48.748;2.222;2022-08-11T19:06:05;34.00;27.40
29345;DHT22;16339;48.748;2.222;2022-08-11T19:08:51;33.90;27.60
29345;DHT22;16339;48.748;2.222;2022-08-11T19:11:34;33.80;27.90
29345;DHT22;16339;48.748;2.222;2022-08-11T19:14:17;33.60;28.00
29345;DHT22;16339;48.748;2.222;2022-08-11T19:16:59;33.40;28.10
29345;DHT22;16339;48.748;2.222;2022-08-11T19:19:42;33.30;28.40
29345;DHT22;16339;48.748;2.222;2022-08-11T19:22:29;33.20;28.60
29345;DHT22;16339;48.748;2.222;2022-08-11T19:25:13;33.10;28.80
29345;DHT22;16339;48.748;2.222;2022-08-11T19:27:54;33.00;28.90
29345;DHT22;16339;48.748;2.222;2022-08-11T19:30:36;32.80;29.10
29345;DHT22;16339;48.748;2.222;2022-08-11T19:33:18;32.70;29.60
29345;DHT22;16339;48.748;2.222;2022-08-11T19:36:01;32.60;29.70
29345;DHT22;16339;48.748;2.222;2022-08-11T19:38:45;32.40;29.70
29345;DHT22;16339;48.748;2.222;2022-08-11T19:41:27;32.30;29.90
29345;DHT22;16339;48.748;2.222;2022-08-11T19:44:10;32.20;30.00
29345;DHT22;16339;48.748;2.222;2022-08-11T19:46:52;32.00;29.90
29345;DHT22;16339;48.748;2.222;2022-08-11T19:49:36;32.00;30.00
29345;DHT22;16339;48.748;2.222;2022-08-11T19:52:18;31.80;30.10
29345;DHT22;16339;48.748;2.222;2022-08-11T19:55:04;31.80;30.00
29345;DHT22;16339;48.748;2.222;2022-08-11T19:57:46;31.70;30.10
29345;DHT22;16339;48.748;2.222;2022-08-11T20:00:28;31.60;30.40
29345;DHT22;16339;48.748;2.222;2022-08-11T20:03:10;31.50;30.60
29345;DHT22;16339;48.748;2.222;2022-08-11T20:05:54;31.40;30.90
29345;DHT22;16339;48.748;2.222;2022-08-11T20:08:40;31.30;30.80
29345;DHT22;16339;48.748;2.222;2022-08-11T20:11:24;31.20;31.00
29345;DHT22;16339;48.748;2.222;2022-08-11T20:14:07;31.10;31.20
29345;DHT22;16339;48.748;2.222;2022-08-11T20:16:50;31.00;31.10
29345;DHT22;16339;48.748;2.222;2022-08-11T20:19:34;30.90;31.30
29345;DHT22;16339;48.748;2.222;2022-08-11T20:22:17;30.90;31.40
29345;DHT22;16339;48.748;2.222;2022-08-11T20:24:59;30.80;31.60
29345;DHT22;16339;48.748;2.222;2022-08-11T20:27:44;30.70;31.80
29345;DHT22;16339;48.748;2.222;2022-08-11T20:30:26;30.60;31.80
29345;DHT22;16339;48.748;2.222;2022-08-11T20:33:08;30.60;31.80
29345;DHT22;16339;48.748;2.222;2022-08-11T20:35:49;30.50;32.00
29345;DHT22;16339;48.748;2.222;2022-08-11T20:38:32;30.40;31.90
29345;DHT22;16339;48.748;2.222;2022-08-11T20:41:14;30.40;32.20
29345;DHT22;16339;48.748;2.222;2022-08-11T20:43:59;30.40;32.30
29345;DHT22;16339;48.748;2.222;2022-08-11T20:46:42;30.30;32.20
29345;DHT22;16339;48.748;2.222;2022-08-11T20:49:25;30.20;32.40
29345;DHT22;16339;48.748;2.222;2022-08-11T20:52:08;30.10;32.60
29345;DHT22;16339;48.748;2.222;2022-08-11T20:54:50;30.10;32.80
29345;DHT22;16339;48.748;2.222;2022-08-11T20:57:31;30.00;32.90
29345;DHT22;16339;48.748;2.222;2022-08-11T21:00:17;29.90;33.20
29345;DHT22;16339;48.748;2.222;2022-08-11T21:02:58;29.90;33.20
29345;DHT22;16339;48.748;2.222;2022-08-11T21:05:39;29.80;33.30
29345;DHT22;16339;48.748;2.222;2022-08-11T21:08:25;29.80;33.40
29345;DHT22;16339;48.748;2.222;2022-08-11T21:11:07;29.70;33.40
29345;DHT22;16339;48.748;2.222;2022-08-11T21:13:50;29.60;33.70
29345;DHT22;16339;48.748;2.222;2022-08-11T21:16:35;29.50;33.90
29345;DHT22;16339;48.748;2.222;2022-08-11T21:19:21;29.50;34.10
29345;DHT22;16339;48.748;2.222;2022-08-11T21:22:03;29.50;34.20
29345;DHT22;16339;48.748;2.222;2022-08-11T21:24:45;29.50;34.30
29345;DHT22;16339;48.748;2.222;2022-08-11T21:27:27;29.40;34.30
29345;DHT22;16339;48.748;2.222;2022-08-11T21:30:09;29.40;34.30
29345;DHT22;16339;48.748;2.222;2022-08-11T21:32:53;29.30;34.50
29345;DHT22;16339;48.748;2.222;2022-08-11T21:35:35;29.30;34.80
29345;DHT22;16339;48.748;2.222;2022-08-11T21:38:17;29.20;34.70
29345;DHT22;16339;48.748;2.222;2022-08-11T21:40:59;29.10;34.80
29345;DHT22;16339;48.748;2.222;2022-08-11T21:43:41;29.10;35.10
29345;DHT22;16339;48.748;2.222;2022-08-11T21:46:23;29.10;35.00
29345;DHT22;16339;48.748;2.222;2022-08-11T21:49:09;29.10;35.20
29345;DHT22;16339;48.748;2.222;2022-08-11T21:51:51;29.10;35.40
29345;DHT22;16339;48.748;2.222;2022-08-11T21:54:32;29.00;35.60
29345;DHT22;16339;48.748;2.222;2022-08-11T21:57:16;29.10;35.80
29345;DHT22;16339;48.748;2.222;2022-08-11T21:59:59;29.10;35.90
29345;DHT22;16339;48.748;2.222;2022-08-11T22:02:42;29.00;36.10
29345;DHT22;16339;48.748;2.222;2022-08-11T22:05:28;29.00;36.20
29345;DHT22;16339;48.748;2.222;2022-08-11T22:08:10;29.00;36.40
29345;DHT22;16339;48.748;2.222;2022-08-11T22:10:52;29.00;36.40